Mid-Ohio Valley Rgnl Information

FAA: PKB - ICAO: KPKB

Mid-Ohio Valley Rgnl (Airport) Location

State West Virginia
County Wood
City Parkersburg
Mid-Ohio Valley Rgnl (Airport) is 6 miles northeast of Parkersburg, WV.
Latitude 39-20-41.8630N
Longitude 081-26-21.4550W
Elevation 858ft

Mid-Ohio Valley Rgnl METARs

METAR KPKB 281353Z 07006KT 10SM CLR 11/08 A2977 RMK AO2 SLP079 T01060078
Altimeter 29.77"
Temperature 10.6°C (51.1°F)
Wind 70° at 6KT
Clouds Skies are clear.
Visibility 10.0mi
Time observed: 2021-10-28T13:53:00Z

Mid-Ohio Valley Rgnl (Airport) Details

Status Operational
Activation October 1938
Ownership Public
Usage Public
Chart CINCINNATI
ATC on-site Yes
Beacon schedule sunset-sunrise
Beacon color clear green

Mid-Ohio Valley Rgnl (Airport) Contacts

Owner WOOD CO. ARPT AUTH
Owner address P.O. BOX 4089, PARKERSBURG, WV 26104-4089
Owner phone 304-464-5113
Manager N/A
Manager address N/A, N/A
Manager phone N/A

Mid-Ohio Valley Rgnl Radio Frequencies

Mid-Ohio Valley Rgnl (Airport) Radio Frequencies

UNICOM 122.95
Common traffic advisory frequency (CTAF) 123.7